Albion, PA

9:16 PM EDT on September 15, 2014 (GMT -0400)
Albion Cranesville | Change Station
CLOSE
Current Station
Personal Weather Station
Location: Albion, PA
Elevation: 984 ft
Nearby Weather Stations

Elev 984 ft 41.89 °N, 80.35 °W | Updated 6 seconds ago

Overcast
Overcast
57.4 °F
Feels Like 57.4 °F
N
0.0
Wind Variable Wind from East

Today
High -- | Low -- °F
--% Chance of Precip.
Yesterday
High -- | Low -- °F
Precip. -- in
7:01 AM 7:31 PM
Waning Gibbous, 50% visible
Pressure 30.08 in
Visibility 2.5 miles
Clouds Scattered Clouds 700 ft
Overcast 1400 ft
Dew Point 57 °F
Humidity 99%
Rainfall 0.01 in
Snow Depth Not available.
UV 0 out of 12
Pollen 3.80 out of 12
Air Quality Not available.
Flu Activity Not available.
SPECI KERI 160111Z 35005KT 2 1/2SM +RA BR SCT007 OVC014 15/13 A3008 RMK AO2 VIS 2V4 P0002

More Conditions Fewer Conditions

Pressure 30.08 in
Visibility 2.5 miles
Clouds Scattered Clouds 700 ft
Overcast 1400 ft
Dew Point 57 °F
Humidity 99%
Rainfall 0.01 in
Snow Depth Not available.
UV 0 out of 12
Pollen 3.80 out of 12
Air Quality Not available.
Flu Activity Not available.
SPECI KERI 160111Z 35005KT 2 1/2SM +RA BR SCT007 OVC014 15/13 A3008 RMK AO2 VIS 2V4 P0002

More Conditions Fewer Conditions

Nowcast | as of 8:09 PM EDT on September 15, 2014

Showers will be on the increase through the late evening hours. Rainfall amounts will vary from up to a quarter inch along the Lakeshore to a few hundredths in the Medina and Akron areas.

×

10-Day Weather Forecast

Almanac

Astronomy

Sep. 15, 2014 Rise Set
Actual Time 7:01 AM EDT 7:31 PM EDT
Civil Twilight 6:33 AM EDT 7:58 PM EDT
Nautical Twilight 6:00 AM EDT 8:31 PM EDT
Astronomical Twilight 5:26 AM EDT 9:05 PM EDT
Moon No Moon Rise 2:05 PM EDT (9/15)
Length of Visible Light 13h 25m
Length of Day
12h 29m
Tomorrow will be 2m 47s shorter.
Waning Gibbous, 50% of the Moon is Illuminated
Today
Waning Gibbous
Sep 15
Last Quarter
Sep 24
New
Oct 1
First Quarter
Oct 8
Full

Today's Extremes

State Highs State Lows

Community

WunderPhotos

Upload Photos

1,753,643 photos uploaded!

WunderBlogs® & News

Nearby

Snow Depth

Station Depth Elevation
No new snow has been reported.

Earthquake Activity

City Distance Mag. Time & Date
No recent earthquake activity has been reported nearby.
Minimum magnitude displayed is 2.5.

Coastal Water Temperatures

Place Temperature
Fairport, OH 66.9 °F
Buffalo, NY 69.1 °F

Nearby Weather Stations